Time;durP1;ratioP1;P1;durP2;ratioP2;P2;SDS_P1;SDS_P2;PMS_P1;PMS_P2;Temp;Humidity;BMP_temperature;BMP_pressure;BME280_temperature;BME280_humidity;BME280_pressure;Samples;Min_cycle;Max_cycle;Signal;HPM_P1;HPM_P2
2022/01/12 00:01:59;;;;;;;;;;;22.50;52.10;;;;;;5097247;28;960;-39
2022/01/12 00:04:26;;;;;;;;;;;22.60;52.00;;;;;;5097772;28;920;-40
2022/01/12 00:06:53;;;;;;;;;;;22.60;52.00;;;;;;5097424;28;1902;-40
2022/01/12 00:09:20;;;;;;;;;;;22.50;52.90;;;;;;5096754;28;980;-39
2022/01/12 00:11:47;;;;;;;;;;;22.60;51.90;;;;;;5097789;28;1006;-39
2022/01/12 00:14:15;;;;;;;;;;;22.60;51.80;;;;;;5097459;28;1003;-38
2022/01/12 00:16:46;;;;;;;;;;;22.60;51.80;;;;;;5096768;28;1011;-42
2022/01/12 00:19:13;;;;;;;;;;;22.60;51.80;;;;;;5097913;28;1020;-39
2022/01/12 00:21:40;;;;;;;;;;;22.60;51.80;;;;;;5096471;28;884;-39
2022/01/12 00:24:07;;;;;;;;;;;22.60;51.70;;;;;;5096448;28;1004;-39
2022/01/12 00:33:09;;;;;;;;;;;22.60;51.70;;;;;;5097025;28;1906;-39
2022/01/12 00:34:58;;;;;;;;;;;22.50;51.70;;;;;;5100175;28;629;-49
2022/01/12 00:37:24;;;;;;;;;;;22.60;51.80;;;;;;5100969;28;1165;-38
2022/01/12 00:39:57;;;;;;;;;;;22.60;51.70;;;;;;5100767;28;984;-40
2022/01/12 00:42:25;;;;;;;;;;;22.50;51.60;;;;;;5101346;28;1207;-39
2022/01/12 00:44:54;;;;;;;;;;;22.50;51.60;;;;;;5100919;28;985;-39
2022/01/12 00:47:21;;;;;;;;;;;22.50;51.70;;;;;;5100913;28;1909;-41
2022/01/12 00:49:48;;;;;;;;;;;22.50;51.60;;;;;;5100957;28;995;-39
2022/01/12 00:52:14;;;;;;;;;;;22.50;51.50;;;;;;5100502;28;997;-39
2022/01/12 00:54:41;;;;;;;;;;;22.60;51.50;;;;;;5101295;28;1019;-39
2022/01/12 00:57:08;;;;;;;;;;;22.50;51.50;;;;;;5100613;28;956;-39
2022/01/12 00:59:35;;;;;;;;;;;22.50;51.50;;;;;;5101136;28;1011;-40
2022/01/12 01:02:04;;;;;;;;;;;22.50;51.50;;;;;;5101068;28;1026;-39
2022/01/12 01:04:30;;;;;;;;;;;22.50;51.40;;;;;;5100774;28;1019;-39
2022/01/12 01:06:57;;;;;;;;;;;22.50;51.40;;;;;;5100002;28;1902;-42
2022/01/12 01:09:24;;;;;;;;;;;22.50;51.40;;;;;;5099992;28;945;-39
2022/01/12 01:11:51;;;;;;;;;;;22.50;51.40;;;;;;5100363;28;1000;-42
2022/01/12 01:14:23;;;;;;;;;;;22.50;51.40;;;;;;5099744;28;984;-39
2022/01/12 01:17:05;;;;;;;;;;;22.50;51.40;;;;;;5101054;28;1035;-39
2022/01/12 01:27:44;;;;;;;;;;;22.50;51.30;;;;;;5099983;28;1913;-38
2022/01/12 01:30:11;;;;;;;;;;;22.50;51.30;;;;;;5099853;28;957;-41
2022/01/12 01:32:38;;;;;;;;;;;22.50;51.20;;;;;;5099797;28;991;-40
2022/01/12 01:35:07;;;;;;;;;;;22.50;51.30;;;;;;5099873;28;1031;-40
2022/01/12 01:37:34;;;;;;;;;;;22.50;51.30;;;;;;5100344;28;995;-39
2022/01/12 01:40:01;;;;;;;;;;;22.50;51.30;;;;;;5099629;28;1011;-41
2022/01/12 01:42:41;;;;;;;;;;;22.50;51.20;;;;;;5099648;28;1003;-41
2022/01/12 01:53:22;;;;;;;;;;;22.50;51.30;;;;;;5100146;28;907;-42
2022/01/12 01:55:50;;;;;;;;;;;22.50;51.30;;;;;;5099814;28;1019;-39
2022/01/12 01:58:17;;;;;;;;;;;22.50;51.30;;;;;;5099687;28;995;-42
2022/01/12 02:00:44;;;;;;;;;;;22.50;51.20;;;;;;5100201;28;972;-39
2022/01/12 02:03:11;;;;;;;;;;;22.50;51.30;;;;;;5100418;28;1008;-35
2022/01/12 02:05:40;;;;;;;;;;;22.50;51.30;;;;;;5099624;28;1898;-36
2022/01/12 02:08:07;;;;;;;;;;;22.50;51.30;;;;;;5099647;28;972;-35
2022/01/12 02:10:34;;;;;;;;;;;22.50;51.10;;;;;;5099684;28;986;-35
2022/01/12 02:13:00;;;;;;;;;;;22.50;51.20;;;;;;5099224;28;932;-36
2022/01/12 02:15:27;;;;;;;;;;;22.50;51.20;;;;;;5099581;28;995;-36
2022/01/12 02:39:43;;;;;;;;;;;22.40;51.20;;;;;;5098146;28;979;-35
2022/01/12 02:40:05;;;;;;;;;;;22.40;51.20;;;;;;5099754;28;769;-36
2022/01/12 02:42:32;;;;;;;;;;;22.40;51.30;;;;;;5098914;28;1005;-35
2022/01/12 02:50:45;;;;;;;;;;;22.40;51.30;;;;;;5017428;28;1256;-36
2022/01/12 02:55:57;;;;;;;;;;;22.30;51.30;;;;;;5097095;28;602;-35
2022/01/12 02:58:24;;;;;;;;;;;22.30;51.40;;;;;;5098589;28;1036;-36
2022/01/12 03:01:17;;;;;;;;;;;22.30;51.40;;;;;;5099019;28;947;-35
2022/01/12 03:03:46;;;;;;;;;;;22.30;51.50;;;;;;5097153;28;986;-36
2022/01/12 03:06:17;;;;;;;;;;;22.20;51.50;;;;;;5097237;28;1902;-36
2022/01/12 03:08:44;;;;;;;;;;;22.20;51.60;;;;;;5098721;28;984;-36
2022/01/12 03:11:13;;;;;;;;;;;22.20;51.60;;;;;;5098779;28;928;-38
2022/01/12 03:13:40;;;;;;;;;;;22.20;51.60;;;;;;5098865;28;958;-36
2022/01/12 03:16:13;;;;;;;;;;;22.20;51.70;;;;;;5098506;28;1335;-37
2022/01/12 03:18:40;;;;;;;;;;;22.20;51.50;;;;;;5098082;28;979;-35
2022/01/12 03:21:07;;;;;;;;;;;22.30;51.50;;;;;;5098426;28;980;-33
2022/01/12 03:23:34;;;;;;;;;;;22.30;51.40;;;;;;5098334;28;999;-36
2022/01/12 03:26:01;;;;;;;;;;;22.30;51.50;;;;;;5098505;28;1898;-35
2022/01/12 03:28:54;;;;;;;;;;;22.30;51.30;;;;;;5098921;28;1022;-35
2022/01/12 03:31:23;;;;;;;;;;;22.30;51.40;;;;;;5097961;28;1015;-35
2022/01/12 03:34:06;;;;;;;;;;;22.30;51.30;;;;;;5097920;28;982;-36
2022/01/12 03:36:54;;;;;;;;;;;22.30;51.30;;;;;;5097253;28;1028;-35
2022/01/12 03:39:21;;;;;;;;;;;22.30;51.30;;;;;;5097594;28;1046;-36
2022/01/12 03:41:48;;;;;;;;;;;22.30;51.20;;;;;;5098025;28;1018;-36
2022/01/12 03:44:15;;;;;;;;;;;22.30;51.30;;;;;;5098253;28;999;-37
2022/01/12 03:46:45;;;;;;;;;;;22.30;51.30;;;;;;5097435;28;1975;-36
2022/01/12 03:49:12;;;;;;;;;;;22.30;51.30;;;;;;5098103;28;1038;-36
2022/01/12 03:51:39;;;;;;;;;;;22.30;51.20;;;;;;5097682;28;995;-36
2022/01/12 03:54:06;;;;;;;;;;;22.30;51.20;;;;;;5098173;28;997;-36
2022/01/12 03:56:33;;;;;;;;;;;22.30;51.30;;;;;;5097392;28;995;-35
2022/01/12 03:59:00;;;;;;;;;;;22.30;51.40;;;;;;5097427;28;1000;-37
2022/01/12 04:01:26;;;;;;;;;;;22.30;51.40;;;;;;5098299;28;928;-35
2022/01/12 04:04:01;;;;;;;;;;;22.30;51.30;;;;;;5097637;28;1308;-35
2022/01/12 04:09:12;;;;;;;;;;;22.30;51.30;;;;;;5102440;28;640;-36
2022/01/12 04:11:39;;;;;;;;;;;22.30;51.20;;;;;;5101242;28;911;-37
2022/01/12 04:14:06;;;;;;;;;;;22.30;51.20;;;;;;5101704;28;857;-37
2022/01/12 04:16:32;;;;;;;;;;;22.30;51.20;;;;;;5101580;28;947;-35
2022/01/12 04:19:01;;;;;;;;;;;22.30;51.10;;;;;;5101976;28;1010;-37
2022/01/12 04:21:29;;;;;;;;;;;22.40;51.10;;;;;;5100332;28;931;-36
2022/01/12 04:23:56;;;;;;;;;;;22.40;51.20;;;;;;5101933;28;968;-36
2022/01/12 04:26:22;;;;;;;;;;;22.40;51.20;;;;;;5101752;28;1898;-36
2022/01/12 04:28:49;;;;;;;;;;;22.40;51.10;;;;;;5101964;28;999;-36
2022/01/12 04:31:16;;;;;;;;;;;22.40;51.20;;;;;;5101452;28;980;-36
2022/01/12 04:33:44;;;;;;;;;;;22.40;51.10;;;;;;5101458;28;1008;-35
2022/01/12 04:36:13;;;;;;;;;;;22.40;51.20;;;;;;5100121;28;952;-35
2022/01/12 04:38:40;;;;;;;;;;;22.40;51.00;;;;;;5101295;28;1110;-35
2022/01/12 04:41:08;;;;;;;;;;;22.40;51.00;;;;;;5100889;28;925;-34
2022/01/12 04:43:35;;;;;;;;;;;22.40;52.30;;;;;;5101563;28;994;-35
2022/01/12 04:46:22;;;;;;;;;;;22.40;51.10;;;;;;5101252;28;948;-36
2022/01/12 04:49:07;;;;;;;;;;;22.40;51.10;;;;;;5101537;28;1007;-36
2022/01/12 04:51:36;;;;;;;;;;;22.40;51.00;;;;;;5100780;28;950;-35
2022/01/12 04:54:03;;;;;;;;;;;22.40;51.10;;;;;;5100683;28;1009;-36
2022/01/12 04:56:30;;;;;;;;;;;22.40;51.00;;;;;;5101121;28;888;-36
2022/01/12 04:58:57;;;;;;;;;;;22.40;51.10;;;;;;5100436;28;992;-35
2022/01/12 05:01:26;;;;;;;;;;;22.40;51.20;;;;;;5100299;28;952;-36
2022/01/12 05:09:28;;;;;;;;;;;22.50;51.20;;;;;;5099875;28;702;-35
2022/01/12 05:14:45;;;;;;;;;;;22.50;51.10;;;;;;5100422;28;668;-36
2022/01/12 05:17:11;;;;;;;;;;;22.50;51.00;;;;;;5100145;28;1016;-36
2022/01/12 05:19:38;;;;;;;;;;;22.50;50.90;;;;;;5098424;28;904;-35
2022/01/12 05:22:06;;;;;;;;;;;22.50;52.10;;;;;;5099919;28;1066;-35
2022/01/12 05:24:33;;;;;;;;;;;22.50;50.80;;;;;;5100372;28;872;-34
2022/01/12 05:27:00;;;;;;;;;;;22.50;50.70;;;;;;5099660;28;1897;-36
2022/01/12 05:29:26;;;;;;;;;;;22.50;50.80;;;;;;5100317;28;1038;-35
2022/01/12 05:31:53;;;;;;;;;;;22.50;50.80;;;;;;5099686;28;971;-36
2022/01/12 05:34:20;;;;;;;;;;;22.50;50.80;;;;;;5099318;28;1004;-36
2022/01/12 05:36:47;;;;;;;;;;;22.50;50.90;;;;;;5100548;28;1004;-35
2022/01/12 05:39:15;;;;;;;;;;;22.50;50.80;;;;;;5098999;28;1208;-36
2022/01/12 05:41:42;;;;;;;;;;;22.50;50.70;;;;;;5099220;28;1021;-35
2022/01/12 05:44:10;;;;;;;;;;;22.50;50.70;;;;;;5099708;28;1004;-36
2022/01/12 05:46:40;;;;;;;;;;;22.50;50.60;;;;;;5098730;28;1002;-36
2022/01/12 05:51:51;;;;;;;;;;;22.40;50.70;;;;;;5099367;28;998;-35
2022/01/12 05:54:20;;;;;;;;;;;22.40;50.70;;;;;;5098932;28;956;-36
2022/01/12 05:56:47;;;;;;;;;;;22.40;50.90;;;;;;5098147;28;1066;-36
2022/01/12 05:59:14;;;;;;;;;;;22.40;51.00;;;;;;5098324;28;1003;-35
2022/01/12 06:01:40;;;;;;;;;;;22.40;50.90;;;;;;5097520;28;1012;-36
2022/01/12 06:04:07;;;;;;;;;;;22.40;51.10;;;;;;5098324;28;920;-35
2022/01/12 06:06:34;;;;;;;;;;;22.40;51.00;;;;;;5097547;28;912;-36
2022/01/12 06:09:00;;;;;;;;;;;22.40;50.90;;;;;;5098164;28;1989;-35
2022/01/12 06:11:29;;;;;;;;;;;22.40;50.90;;;;;;5098643;28;1038;-35
2022/01/12 06:13:57;;;;;;;;;;;22.40;50.80;;;;;;5098999;28;1851;-35
2022/01/12 06:16:24;;;;;;;;;;;22.40;50.60;;;;;;5097850;28;1000;-35
2022/01/12 06:18:52;;;;;;;;;;;22.40;50.60;;;;;;5097050;28;1097;-35
2022/01/12 06:21:18;;;;;;;;;;;22.40;50.60;;;;;;5097814;28;1465;-35
2022/01/12 06:23:45;;;;;;;;;;;22.40;50.60;;;;;;5096546;28;940;-35
2022/01/12 06:26:12;;;;;;;;;;;22.40;50.70;;;;;;5095862;28;869;-36
2022/01/12 06:28:53;;;;;;;;;;;22.30;50.70;;;;;;5097418;28;1973;-35
2022/01/12 06:31:26;;;;;;;;;;;22.40;50.80;;;;;;5095551;28;933;-36
2022/01/12 06:33:52;;;;;;;;;;;22.30;50.80;;;;;;5096632;28;1107;-35
2022/01/12 06:36:21;;;;;;;;;;;22.40;50.70;;;;;;5096499;28;1008;-35
2022/01/12 06:38:48;;;;;;;;;;;22.30;50.90;;;;;;5096917;28;1256;-36
2022/01/12 06:41:15;;;;;;;;;;;22.30;50.90;;;;;;5096290;28;876;-36
2022/01/12 06:43:43;;;;;;;;;;;22.40;50.80;;;;;;5096956;28;1771;-35
2022/01/12 06:46:10;;;;;;;;;;;22.30;50.70;;;;;;5098090;28;928;-36
2022/01/12 06:48:38;;;;;;;;;;;22.30;50.90;;;;;;5097240;28;1910;-37
2022/01/12 06:51:05;;;;;;;;;;;22.40;50.80;;;;;;5096897;28;940;-36
2022/01/12 06:53:32;;;;;;;;;;;22.30;50.80;;;;;;5096767;28;1028;-37
2022/01/12 06:55:59;;;;;;;;;;;22.40;50.80;;;;;;5096650;28;972;-39
2022/01/12 06:58:26;;;;;;;;;;;22.40;51.10;;;;;;5096441;28;2256;-36
2022/01/12 07:00:55;;;;;;;;;;;22.40;50.90;;;;;;5095423;28;1000;-36
2022/01/12 07:03:22;;;;;;;;;;;22.40;51.10;;;;;;5096833;28;940;-36
2022/01/12 07:05:49;;;;;;;;;;;22.50;50.80;;;;;;5095551;28;984;-36
2022/01/12 07:08:16;;;;;;;;;;;22.40;50.70;;;;;;5094878;28;1905;-37
2022/01/12 07:10:42;;;;;;;;;;;22.50;50.80;;;;;;5096256;28;1007;-35
2022/01/12 07:13:10;;;;;;;;;;;22.40;50.80;;;;;;5096294;28;924;-35
2022/01/12 07:15:37;;;;;;;;;;;22.50;50.80;;;;;;5096294;28;1043;-35
2022/01/12 07:18:05;;;;;;;;;;;22.40;50.80;;;;;;5095167;28;988;-37
2022/01/12 07:20:32;;;;;;;;;;;22.40;50.90;;;;;;5095575;28;936;-36
2022/01/12 07:22:59;;;;;;;;;;;22.30;51.00;;;;;;5095722;28;976;-36
2022/01/12 07:25:25;;;;;;;;;;;22.30;51.00;;;;;;5095476;28;1007;-35
2022/01/12 07:27:52;;;;;;;;;;;22.30;51.00;;;;;;5096535;28;1993;-35
2022/01/12 07:30:20;;;;;;;;;;;22.20;50.90;;;;;;5097023;28;1022;-35
2022/01/12 07:32:47;;;;;;;;;;;22.30;51.10;;;;;;5096443;28;1108;-36
2022/01/12 07:35:16;;;;;;;;;;;22.20;51.00;;;;;;5097122;28;903;-35
2022/01/12 07:37:42;;;;;;;;;;;22.30;51.10;;;;;;5096584;28;1118;-37
2022/01/12 07:40:10;;;;;;;;;;;22.20;51.30;;;;;;5096519;28;916;-36
2022/01/12 07:42:37;;;;;;;;;;;22.20;51.20;;;;;;5095557;28;1003;-36
2022/01/12 07:45:04;;;;;;;;;;;22.20;51.10;;;;;;5096652;28;1011;-35
2022/01/12 07:47:32;;;;;;;;;;;22.20;51.20;;;;;;5096507;28;1979;-36
2022/01/12 07:49:59;;;;;;;;;;;22.20;51.20;;;;;;5097463;28;1007;-35
2022/01/12 07:52:30;;;;;;;;;;;22.20;51.20;;;;;;5096331;28;1031;-35
2022/01/12 07:54:56;;;;;;;;;;;22.10;51.20;;;;;;5096232;28;1031;-35
2022/01/12 07:57:23;;;;;;;;;;;22.10;51.30;;;;;;5096122;28;984;-35
2022/01/12 07:59:50;;;;;;;;;;;22.10;51.30;;;;;;5095647;28;931;-36
2022/01/12 08:02:16;;;;;;;;;;;22.10;51.10;;;;;;5096557;28;987;-35
2022/01/12 08:04:43;;;;;;;;;;;22.10;51.20;;;;;;5096686;28;1000;-36
2022/01/12 08:07:10;;;;;;;;;;;22.10;51.10;;;;;;5095983;28;991;-37
2022/01/12 08:09:39;;;;;;;;;;;22.10;51.20;;;;;;5096387;28;1997;-36
2022/01/12 08:12:06;;;;;;;;;;;22.10;51.10;;;;;;5096526;28;977;-35
2022/01/12 08:14:33;;;;;;;;;;;22.10;51.20;;;;;;5094684;28;931;-35
2022/01/12 08:17:00;;;;;;;;;;;22.10;51.10;;;;;;5096452;28;1002;-35
2022/01/12 08:19:28;;;;;;;;;;;22.10;51.10;;;;;;5094250;28;929;-35
2022/01/12 08:21:54;;;;;;;;;;;22.10;51.10;;;;;;5093392;28;965;-35
2022/01/12 08:24:21;;;;;;;;;;;22.10;51.00;;;;;;5094759;28;949;-35
2022/01/12 08:26:49;;;;;;;;;;;22.10;51.20;;;;;;5095708;28;998;-35
2022/01/12 08:29:16;;;;;;;;;;;22.10;51.20;;;;;;5094972;28;1901;-37
2022/01/12 08:31:44;;;;;;;;;;;22.00;51.00;;;;;;5094554;28;1027;-35
2022/01/12 08:34:11;;;;;;;;;;;22.10;51.00;;;;;;5095420;28;967;-35
2022/01/12 08:36:38;;;;;;;;;;;22.10;51.10;;;;;;5095756;28;1016;-36
2022/01/12 08:39:07;;;;;;;;;;;22.10;50.90;;;;;;5094156;28;1292;-35
2022/01/12 08:41:34;;;;;;;;;;;22.10;51.00;;;;;;5095225;28;944;-36
2022/01/12 08:44:02;;;;;;;;;;;22.10;51.00;;;;;;5095962;28;1122;-35
2022/01/12 08:46:28;;;;;;;;;;;22.10;51.00;;;;;;5094498;28;872;-37
2022/01/12 08:48:55;;;;;;;;;;;22.10;51.10;;;;;;5094139;28;1897;-35
2022/01/12 08:51:22;;;;;;;;;;;22.10;50.90;;;;;;5094944;28;933;-36
2022/01/12 08:53:49;;;;;;;;;;;22.10;50.90;;;;;;5096823;28;1267;-36
2022/01/12 08:56:16;;;;;;;;;;;22.10;51.00;;;;;;5098064;28;988;-36
2022/01/12 08:58:42;;;;;;;;;;;22.10;50.90;;;;;;5099258;28;991;-35
2022/01/12 09:01:10;;;;;;;;;;;22.00;50.90;;;;;;5098729;28;1012;-35
2022/01/12 09:03:38;;;;;;;;;;;22.10;50.90;;;;;;5097633;28;896;-36
2022/01/12 09:06:05;;;;;;;;;;;22.10;50.90;;;;;;5097781;28;920;-36
2022/01/12 09:08:34;;;;;;;;;;;22.10;50.80;;;;;;5098814;28;1977;-35
2022/01/12 09:11:00;;;;;;;;;;;22.00;50.80;;;;;;5097613;28;981;-35
2022/01/12 09:13:27;;;;;;;;;;;22.00;50.70;;;;;;5098868;28;947;-35
2022/01/12 09:15:54;;;;;;;;;;;22.00;50.80;;;;;;5097911;28;916;-35
2022/01/12 09:18:22;;;;;;;;;;;22.00;50.80;;;;;;5097949;28;1007;-35
2022/01/12 09:20:50;;;;;;;;;;;22.00;50.90;;;;;;5098821;28;849;-36
2022/01/12 09:23:17;;;;;;;;;;;22.00;51.00;;;;;;5098300;28;931;-35
2022/01/12 09:25:44;;;;;;;;;;;22.00;50.80;;;;;;5097253;28;973;-35
2022/01/12 09:28:10;;;;;;;;;;;22.00;50.80;;;;;;5096761;28;1980;-35
2022/01/12 09:30:37;;;;;;;;;;;22.00;50.90;;;;;;5097069;28;1011;-36
2022/01/12 09:33:04;;;;;;;;;;;22.00;50.90;;;;;;5097621;28;1000;-36
2022/01/12 09:35:32;;;;;;;;;;;22.00;50.80;;;;;;5096271;28;1016;-37
2022/01/12 09:37:59;;;;;;;;;;;22.00;50.80;;;;;;5097391;28;986;-35
2022/01/12 09:40:26;;;;;;;;;;;21.90;50.90;;;;;;5097516;28;896;-36
2022/01/12 09:42:53;;;;;;;;;;;21.90;50.80;;;;;;5097055;28;940;-36
2022/01/12 09:45:20;;;;;;;;;;;22.00;50.90;;;;;;5097497;28;991;-35
2022/01/12 09:47:49;;;;;;;;;;;22.00;50.90;;;;;;5097477;28;1015;-37
2022/01/12 09:50:16;;;;;;;;;;;21.90;50.90;;;;;;5097136;28;1906;-35
2022/01/12 09:52:44;;;;;;;;;;;22.00;50.90;;;;;;5096579;28;1014;-35
2022/01/12 09:55:11;;;;;;;;;;;22.00;50.90;;;;;;5095999;28;1019;-35
2022/01/12 09:57:38;;;;;;;;;;;21.90;50.80;;;;;;5095722;28;1147;-38
2022/01/12 10:00:06;;;;;;;;;;;21.90;50.80;;;;;;5096350;28;964;-35
2022/01/12 10:02:33;;;;;;;;;;;21.90;50.90;;;;;;5095179;28;1863;-36
2022/01/12 10:05:00;;;;;;;;;;;21.90;50.80;;;;;;5097115;28;988;-35
2022/01/12 10:07:27;;;;;;;;;;;21.90;50.80;;;;;;5096157;28;1025;-35
2022/01/12 10:09:59;;;;;;;;;;;21.90;50.90;;;;;;5096167;28;1905;-35
2022/01/12 10:12:27;;;;;;;;;;;21.90;50.80;;;;;;5095993;28;1008;-36
2022/01/12 10:14:55;;;;;;;;;;;21.90;50.90;;;;;;5096710;28;945;-35
2022/01/12 10:17:31;;;;;;;;;;;21.90;50.90;;;;;;5096635;28;955;-35
2022/01/12 10:20:05;;;;;;;;;;;21.90;50.90;;;;;;5095876;28;915;-36
2022/01/12 10:22:31;;;;;;;;;;;21.90;50.90;;;;;;5096769;28;988;-36
2022/01/12 10:25:01;;;;;;;;;;;21.90;50.90;;;;;;5095871;28;964;-35
2022/01/12 10:27:28;;;;;;;;;;;21.80;50.90;;;;;;5096672;28;984;-36
2022/01/12 10:29:57;;;;;;;;;;;21.80;50.80;;;;;;5096115;28;1984;-35
2022/01/12 10:32:23;;;;;;;;;;;21.80;50.90;;;;;;5096433;28;923;-35
2022/01/12 10:34:50;;;;;;;;;;;21.80;50.80;;;;;;5097067;28;932;-35
2022/01/12 10:37:18;;;;;;;;;;;21.80;50.90;;;;;;5094307;28;1316;-35
2022/01/12 10:39:46;;;;;;;;;;;21.80;50.90;;;;;;5095018;28;897;-36
2022/01/12 10:42:14;;;;;;;;;;;21.80;50.90;;;;;;5096542;28;973;-36
2022/01/12 10:44:42;;;;;;;;;;;21.80;50.90;;;;;;5096216;28;992;-36
2022/01/12 10:47:13;;;;;;;;;;;21.80;50.90;;;;;;5096006;28;1009;-35
2022/01/12 10:49:40;;;;;;;;;;;21.80;50.90;;;;;;5096387;28;1902;-35
2022/01/12 10:52:08;;;;;;;;;;;21.80;50.90;;;;;;5095236;28;1020;-35
2022/01/12 10:54:45;;;;;;;;;;;21.80;50.90;;;;;;5095726;28;992;-44
2022/01/12 10:57:23;;;;;;;;;;;21.80;51.00;;;;;;5095730;28;1016;-35
2022/01/12 11:00:05;;;;;;;;;;;21.80;50.90;;;;;;5096217;28;892;-36
2022/01/12 11:02:32;;;;;;;;;;;21.70;50.80;;;;;;5094792;28;983;-36
2022/01/12 11:04:59;;;;;;;;;;;21.70;50.80;;;;;;5095879;28;964;-36
2022/01/12 11:07:26;;;;;;;;;;;21.70;50.80;;;;;;5095442;28;1016;-35
2022/01/12 11:09:55;;;;;;;;;;;21.70;50.80;;;;;;5095234;28;1902;-37
2022/01/12 11:12:23;;;;;;;;;;;21.70;50.90;;;;;;5095487;28;988;-36
2022/01/12 11:14:50;;;;;;;;;;;21.70;51.00;;;;;;5095768;28;995;-37
2022/01/12 11:17:17;;;;;;;;;;;21.70;50.80;;;;;;5095017;28;987;-36
2022/01/12 11:19:48;;;;;;;;;;;21.70;50.90;;;;;;5094412;28;916;-35
2022/01/12 11:22:25;;;;;;;;;;;21.70;50.90;;;;;;5096236;28;1025;-37
2022/01/12 11:24:54;;;;;;;;;;;21.70;50.90;;;;;;5095646;28;972;-36
2022/01/12 11:27:21;;;;;;;;;;;21.70;50.80;;;;;;5095354;28;1044;-36
2022/01/12 11:29:50;;;;;;;;;;;21.70;50.80;;;;;;5095887;28;1995;-36
2022/01/12 11:32:22;;;;;;;;;;;21.70;50.90;;;;;;5093784;28;1348;-35
2022/01/12 11:34:58;;;;;;;;;;;21.70;51.00;;;;;;5095635;28;1013;-35
2022/01/12 11:37:25;;;;;;;;;;;21.70;51.00;;;;;;5094961;28;1134;-36
2022/01/12 11:39:52;;;;;;;;;;;21.70;50.90;;;;;;5095068;28;936;-36
2022/01/12 11:42:19;;;;;;;;;;;21.70;50.90;;;;;;5095608;28;968;-35
2022/01/12 11:44:46;;;;;;;;;;;21.70;50.90;;;;;;5094798;28;1042;-35
2022/01/12 11:47:15;;;;;;;;;;;21.70;50.80;;;;;;5095076;28;1050;-37
2022/01/12 11:49:44;;;;;;;;;;;21.70;50.80;;;;;;5094862;28;1972;-35
2022/01/12 11:52:14;;;;;;;;;;;21.60;51.90;;;;;;5095547;28;1023;-35
2022/01/12 11:54:45;;;;;;;;;;;21.70;50.80;;;;;;5093950;28;876;-35
2022/01/12 11:57:18;;;;;;;;;;;21.60;50.80;;;;;;5094645;28;996;-35
2022/01/12 11:59:52;;;;;;;;;;;21.60;51.00;;;;;;5095963;28;980;-35
2022/01/12 12:02:21;;;;;;;;;;;21.60;51.00;;;;;;5093722;28;964;-36
2022/01/12 12:04:53;;;;;;;;;;;21.60;50.90;;;;;;5093326;28;783;-35
2022/01/12 12:07:20;;;;;;;;;;;21.60;51.00;;;;;;5092834;28;993;-36
2022/01/12 12:09:50;;;;;;;;;;;21.60;50.90;;;;;;5093782;28;1898;-36
2022/01/12 12:12:17;;;;;;;;;;;21.60;50.80;;;;;;5094902;28;1019;-37
2022/01/12 12:14:45;;;;;;;;;;;21.60;50.80;;;;;;5093864;28;1018;-36
2022/01/12 12:17:12;;;;;;;;;;;21.60;50.90;;;;;;5093919;28;1014;-36
2022/01/12 12:19:40;;;;;;;;;;;21.60;50.90;;;;;;5093771;28;876;-34
2022/01/12 12:22:08;;;;;;;;;;;21.60;50.90;;;;;;5093038;28;928;-36
2022/01/12 12:24:34;;;;;;;;;;;21.50;50.90;;;;;;5092962;28;969;-35
2022/01/12 12:27:02;;;;;;;;;;;21.60;50.90;;;;;;5094523;28;1028;-37
2022/01/12 12:29:29;;;;;;;;;;;21.60;50.80;;;;;;5095745;28;1902;-36
2022/01/12 12:31:57;;;;;;;;;;;21.50;50.80;;;;;;5098702;28;936;-35
2022/01/12 12:34:24;;;;;;;;;;;21.60;51.00;;;;;;5097956;28;1007;-37
2022/01/12 12:36:58;;;;;;;;;;;21.50;50.90;;;;;;5098533;28;1023;-36
2022/01/12 12:39:24;;;;;;;;;;;21.50;52.00;;;;;;5096190;28;1150;-35
2022/01/12 12:41:51;;;;;;;;;;;21.60;50.90;;;;;;5098758;28;967;-36
2022/01/12 12:44:23;;;;;;;;;;;21.50;50.90;;;;;;5097611;28;984;-36
2022/01/12 12:46:50;;;;;;;;;;;21.50;50.90;;;;;;5096746;28;912;-36
2022/01/12 12:49:17;;;;;;;;;;;21.50;51.00;;;;;;5096828;28;1874;-36
2022/01/12 12:51:44;;;;;;;;;;;21.60;51.00;;;;;;5097393;28;964;-35
2022/01/12 12:54:14;;;;;;;;;;;21.50;50.90;;;;;;5096403;28;943;-35
2022/01/12 12:56:48;;;;;;;;;;;21.50;50.80;;;;;;5096895;28;1016;-35
2022/01/12 12:59:15;;;;;;;;;;;21.50;50.90;;;;;;5096808;28;884;-35
2022/01/12 13:01:41;;;;;;;;;;;21.60;50.90;;;;;;5097601;28;1738;-36
2022/01/12 13:04:08;;;;;;;;;;;21.50;50.90;;;;;;5098114;28;1028;-35
2022/01/12 13:06:36;;;;;;;;;;;21.50;50.80;;;;;;5098171;28;928;-36
2022/01/12 13:09:05;;;;;;;;;;;21.50;50.90;;;;;;5097777;28;1898;-37
2022/01/12 13:11:34;;;;;;;;;;;21.50;51.00;;;;;;5097664;28;964;-35
2022/01/12 13:14:01;;;;;;;;;;;21.50;50.90;;;;;;5098225;28;1107;-36
2022/01/12 13:16:28;;;;;;;;;;;21.50;50.90;;;;;;5097517;28;869;-35
2022/01/12 13:19:04;;;;;;;;;;;21.50;50.90;;;;;;5097507;28;1020;-40
2022/01/12 13:21:34;;;;;;;;;;;21.40;50.80;;;;;;5096344;28;1086;-39
2022/01/12 13:24:01;;;;;;;;;;;21.50;51.00;;;;;;5097657;28;1009;-36
2022/01/12 13:26:31;;;;;;;;;;;21.50;50.90;;;;;;5096403;28;901;-36
2022/01/12 13:29:01;;;;;;;;;;;21.50;50.90;;;;;;5096085;28;1021;-36
2022/01/12 13:31:28;;;;;;;;;;;21.50;50.90;;;;;;5095617;28;1902;-37
2022/01/12 13:33:58;;;;;;;;;;;21.40;50.80;;;;;;5096685;28;1084;-36
2022/01/12 13:36:26;;;;;;;;;;;21.50;50.90;;;;;;5097838;28;904;-36
2022/01/12 13:38:55;;;;;;;;;;;21.50;50.80;;;;;;5096381;28;1043;-37
2022/01/12 13:41:24;;;;;;;;;;;21.50;50.80;;;;;;5097563;28;935;-37
2022/01/12 13:43:53;;;;;;;;;;;21.40;50.90;;;;;;5097450;28;968;-37
2022/01/12 13:46:29;;;;;;;;;;;21.40;50.90;;;;;;5097624;28;991;-37
2022/01/12 13:49:20;;;;;;;;;;;21.40;50.80;;;;;;5097635;28;994;-36
2022/01/12 13:51:53;;;;;;;;;;;21.40;50.90;;;;;;5097231;28;1016;-37
2022/01/12 13:54:20;;;;;;;;;;;21.40;50.90;;;;;;5096922;28;888;-36
2022/01/12 13:56:48;;;;;;;;;;;21.40;50.90;;;;;;5096624;28;980;-37
2022/01/12 13:59:16;;;;;;;;;;;21.40;50.90;;;;;;5096516;28;961;-36
2022/01/12 14:01:45;;;;;;;;;;;21.40;51.00;;;;;;5097196;28;1005;-37
2022/01/12 14:04:16;;;;;;;;;;;21.40;50.80;;;;;;5096768;28;995;-36
2022/01/12 14:06:45;;;;;;;;;;;21.40;51.00;;;;;;5097306;28;1024;-37
2022/01/12 14:09:22;;;;;;;;;;;21.40;50.90;;;;;;5097152;28;928;-37
2022/01/12 14:11:49;;;;;;;;;;;21.40;50.90;;;;;;5096683;28;1023;-38
2022/01/12 14:14:16;;;;;;;;;;;21.40;51.00;;;;;;5095931;28;904;-37
2022/01/12 14:16:43;;;;;;;;;;;21.40;50.90;;;;;;5096664;28;983;-38
2022/01/12 14:19:11;;;;;;;;;;;21.40;51.00;;;;;;5095549;28;923;-38
2022/01/12 14:21:38;;;;;;;;;;;21.40;51.10;;;;;;5096205;28;923;-38
2022/01/12 14:24:06;;;;;;;;;;;21.40;51.00;;;;;;5096246;28;1034;-39
2022/01/12 14:26:34;;;;;;;;;;;21.40;51.00;;;;;;5095655;28;1079;-38
2022/01/12 14:29:01;;;;;;;;;;;21.40;51.00;;;;;;5096658;28;1005;-38
2022/01/12 14:31:28;;;;;;;;;;;21.40;51.00;;;;;;5095487;28;1902;-36
2022/01/12 14:33:56;;;;;;;;;;;21.40;51.00;;;;;;5095880;28;1025;-38
2022/01/12 14:36:24;;;;;;;;;;;21.30;50.90;;;;;;5095522;28;1015;-37
2022/01/12 14:38:51;;;;;;;;;;;21.30;50.90;;;;;;5096683;28;1039;-37
2022/01/12 14:41:17;;;;;;;;;;;21.40;50.90;;;;;;5095628;28;976;-36
2022/01/12 14:43:45;;;;;;;;;;;21.30;50.90;;;;;;5094771;28;1246;-37
2022/01/12 14:46:13;;;;;;;;;;;21.30;50.90;;;;;;5094389;28;944;-37
2022/01/12 14:48:39;;;;;;;;;;;21.40;51.00;;;;;;5095718;28;1021;-36
2022/01/12 14:51:07;;;;;;;;;;;21.30;50.90;;;;;;5095348;28;1906;-36
2022/01/12 14:53:36;;;;;;;;;;;21.30;50.90;;;;;;5094413;28;986;-37
2022/01/12 14:56:04;;;;;;;;;;;21.30;50.90;;;;;;5095249;28;1012;-38
2022/01/12 14:58:31;;;;;;;;;;;21.30;50.90;;;;;;5094716;28;1000;-36
2022/01/12 15:00:58;;;;;;;;;;;21.30;50.90;;;;;;5095207;28;1016;-44
2022/01/12 15:03:26;;;;;;;;;;;21.30;50.90;;;;;;5095837;28;1001;-42
2022/01/12 15:05:53;;;;;;;;;;;21.30;50.90;;;;;;5095328;28;1103;-42
2022/01/12 15:08:22;;;;;;;;;;;21.30;50.90;;;;;;5095968;28;984;-41
2022/01/12 15:10:50;;;;;;;;;;;21.30;50.90;;;;;;5095031;28;1902;-42
2022/01/12 15:13:21;;;;;;;;;;;21.30;50.90;;;;;;5095328;28;1058;-41
2022/01/12 15:15:49;;;;;;;;;;;21.30;50.90;;;;;;5095340;28;996;-43
2022/01/12 15:18:16;;;;;;;;;;;21.30;50.90;;;;;;5096292;28;1146;-42
2022/01/12 15:20:43;;;;;;;;;;;21.30;50.90;;;;;;5094891;28;1003;-45
2022/01/12 15:23:11;;;;;;;;;;;21.30;50.90;;;;;;5096375;28;1037;-42
2022/01/12 15:25:37;;;;;;;;;;;21.30;50.80;;;;;;5096087;28;1015;-44
2022/01/12 15:28:07;;;;;;;;;;;21.30;50.90;;;;;;5096370;28;992;-41
2022/01/12 15:30:34;;;;;;;;;;;21.30;50.90;;;;;;5096867;28;1980;-40
2022/01/12 15:33:01;;;;;;;;;;;21.30;50.90;;;;;;5097183;28;929;-40
2022/01/12 15:35:28;;;;;;;;;;;21.30;50.90;;;;;;5094705;28;944;-43
2022/01/12 15:37:55;;;;;;;;;;;21.30;50.90;;;;;;5094079;28;1075;-39
2022/01/12 15:40:21;;;;;;;;;;;21.30;50.90;;;;;;5094896;28;984;-41
2022/01/12 15:42:48;;;;;;;;;;;21.20;50.90;;;;;;5094959;28;997;-41
2022/01/12 15:45:16;;;;;;;;;;;21.30;51.00;;;;;;5094338;28;1079;-41
2022/01/12 15:47:43;;;;;;;;;;;21.20;50.90;;;;;;5094986;28;960;-40